CheckWX is a tool to help pilots better visualize weather data.  It is not intended as a substitute for an official pre-flight weather briefing.

04:29:56 UTC

KCRQ METAR
Mc Clellan-Palomar Airport
Carlsbad, California, USA
Current

37 mins ago

KCRQ 020353Z 18006KT 10SM OVC016 15/11 A2989 RMK AO2 SLP121 T01500106 $
Observed
Apr-2 @ 03:53 UTC
Wind
  • 180° at 6 KTS
Visibility
10 SM
Flight Rules
MVFR
Cloud Levels
  • Overcast at 1,600' AGL
Temperature
15°C / 59°F
Dewpoint
11°C / 52°F
Humidity
77%
Altimeter
29.89" Hg
Pressure
1012.22 hPa
Previous

1 hour ago

KCRQ 020314Z 19004KT 10SM OVC015 15/11 A2988 RMK AO2 T01500106 $
Observed
Apr-2 @ 03:14 UTC
Wind
  • 190° at 4 KTS
Visibility
10 SM
Flight Rules
MVFR
Cloud Levels
  • Overcast at 1,500' AGL
Temperature
15°C / 59°F
Dewpoint
11°C / 52°F
Humidity
77%
Altimeter
29.88" Hg
Pressure
1011.82 hPa
Previous

2 hours ago

KCRQ 020253Z 19006KT 10SM OVC014 15/11 A2988 RMK AO2 SLP116 T01500111 53010 $
Observed
Apr-2 @ 02:53 UTC
Wind
  • 190° at 6 KTS
Visibility
10 SM
Flight Rules
MVFR
Cloud Levels
  • Overcast at 1,400' AGL
Temperature
15°C / 59°F
Dewpoint
11°C / 52°F
Humidity
77%
Altimeter
29.88" Hg
Pressure
1011.82 hPa